Time;durP1;ratioP1;P1;durP2;ratioP2;P2;SDS_P1;SDS_P2;PMS_P1;PMS_P2;Temp;Humidity;BMP_temperature;BMP_pressure;BME280_temperature;BME280_humidity;BME280_pressure;Samples;Min_cycle;Max_cycle;Signal;HPM_P1;HPM_P2
2022/11/11 00:02:17;;;;;;;;;11.75;8.50;;;;;10.68;73.62;102695.69;4977241;28;58845;-77
2022/11/11 00:04:42;;;;;;;;;10.75;7.00;;;;;10.63;73.54;102703.47;4975987;28;63106;-77
2022/11/11 00:07:08;;;;;;;;;9.00;5.50;;;;;10.58;73.49;102702.59;4976832;28;70106;-77
2022/11/11 00:09:34;;;;;;;;;7.00;7.00;;;;;10.60;73.63;102708.66;4977698;28;46167;-77
2022/11/11 00:11:59;;;;;;;;;10.75;5.75;;;;;10.59;73.84;102716.50;4977631;28;45452;-77
2022/11/11 00:14:25;;;;;;;;;7.00;6.00;;;;;10.57;74.06;102707.81;4977009;28;54203;-77
2022/11/11 00:25:06;;;;;;;;;8.75;2.75;;;;;10.52;74.19;102693.91;4977529;28;45388;-77
2022/11/11 00:27:33;;;;;;;;;7.00;5.00;;;;;10.53;74.17;102700.84;4976220;28;45397;-77
2022/11/11 00:29:58;;;;;;;;;10.50;7.75;;;;;10.49;74.44;102701.69;4976974;28;46293;-77
2022/11/11 00:32:25;;;;;;;;;8.25;6.00;;;;;10.52;74.39;102704.31;4976439;28;68702;-77
2022/11/11 00:37:37;;;;;;;;;6.50;5.25;;;;;10.55;74.33;102720.81;4977028;28;45464;-77
2022/11/11 00:40:03;;;;;;;;;10.75;6.00;;;;;10.58;74.01;102723.41;4977092;28;45331;-77
2022/11/11 00:42:28;;;;;;;;;7.50;5.50;;;;;10.58;74.00;102723.41;4976800;28;45356;-77
2022/11/11 00:44:53;;;;;;;;;6.25;6.00;;;;;10.62;73.77;102735.59;4976583;28;66286;-77
2022/11/11 00:52:54;;;;;;;;;5.00;5.00;;;;;10.70;73.79;102732.13;4976211;28;45378;-77
2022/11/11 00:55:19;;;;;;;;;8.50;6.00;;;;;10.72;73.72;102728.69;4976545;28;66077;-77
2022/11/11 00:57:44;;;;;;;;;6.75;6.75;;;;;10.73;73.88;102732.16;4976827;28;45310;-77
2022/11/11 01:00:11;;;;;;;;;7.00;5.75;;;;;10.76;74.08;102745.19;4976884;28;45382;-78
2022/11/11 01:02:36;;;;;;;;;7.75;6.75;;;;;10.82;73.97;102739.97;4976816;28;45483;-77
2022/11/11 01:05:01;;;;;;;;;9.25;8.50;;;;;10.82;73.52;102732.16;4975974;28;67880;-77
2022/11/11 01:07:27;;;;;;;;;11.25;7.00;;;;;10.78;73.46;102723.47;4976938;28;45331;-77
2022/11/11 01:09:52;;;;;;;;;6.50;6.00;;;;;10.88;73.56;102733.91;4975806;28;75745;-77
2022/11/11 01:12:17;;;;;;;;;8.50;6.00;;;;;10.93;73.62;102730.44;4975307;28;73079;-77
2022/11/11 01:14:43;;;;;;;;;8.25;7.50;;;;;10.95;73.60;102738.28;4976893;28;45704;-77
2022/11/11 01:17:08;;;;;;;;;8.00;6.50;;;;;10.95;73.52;102728.72;4975809;28;64587;-77
2022/11/11 01:19:34;;;;;;;;;11.25;7.75;;;;;10.95;74.00;102733.91;4976609;28;46108;-77
2022/11/11 01:21:59;;;;;;;;;6.00;5.50;;;;;10.99;73.81;102735.66;4976672;28;45995;-77
2022/11/11 01:24:25;;;;;;;;;10.00;7.00;;;;;11.05;73.83;102721.78;4976349;28;53711;-77
2022/11/11 01:26:50;;;;;;;;;10.25;7.00;;;;;11.08;73.93;102733.94;4976115;28;45840;-77
2022/11/11 01:29:15;;;;;;;;;15.00;7.50;;;;;11.12;73.99;102730.47;4975717;28;71986;-77
2022/11/11 01:31:40;;;;;;;;;13.50;8.50;;;;;11.16;73.86;102727.88;4975389;28;72088;-77
2022/11/11 01:34:06;;;;;;;;;6.50;6.00;;;;;11.23;73.72;102739.16;4959185;28;45371;-77
2022/11/11 01:36:31;;;;;;;;;7.75;5.75;;;;;11.26;73.65;102728.75;4975381;28;70334;-77
2022/11/11 01:38:58;;;;;;;;;7.75;7.00;;;;;11.35;73.19;102739.16;4958821;28;47289;-77
2022/11/11 01:41:32;;;;;;;;;13.50;10.75;;;;;11.36;73.04;102740.03;4970337;28;45757;-77
2022/11/11 01:44:10;;;;;;;;;10.50;7.00;;;;;11.39;73.09;102740.91;4976576;28;45331;-77
2022/11/11 01:46:42;;;;;;;;;10.25;7.50;;;;;11.40;72.64;102737.44;4976544;28;45349;-77
2022/11/11 01:49:18;;;;;;;;;6.75;6.75;;;;;11.43;73.04;102728.72;4976141;28;46784;-77
2022/11/11 01:52:05;;;;;;;;;15.00;8.00;;;;;11.52;72.98;102735.69;4975002;28;45492;-77
2022/11/11 01:54:35;;;;;;;;;8.50;8.50;;;;;11.58;72.71;102740.88;4975148;28;45423;-77
2022/11/11 01:57:09;;;;;;;;;7.00;7.00;;;;;11.57;72.39;102747.84;4974933;28;45420;-77
2022/11/11 01:59:36;;;;;;;;;8.00;5.75;;;;;11.58;72.32;102741.75;4975991;28;46516;-77
2022/11/11 02:02:06;;;;;;;;;10.50;6.25;;;;;11.63;72.68;102731.31;4975370;28;45750;-77
2022/11/11 02:07:17;;;;;;;;;7.75;6.75;;;;;11.63;72.20;102734.78;4978797;28;45511;-77
2022/11/11 02:09:44;;;;;;;;;8.25;6.75;;;;;11.66;72.24;102739.13;4976892;28;74197;-77
2022/11/11 02:14:57;;;;;;;;;11.00;9.75;;;;;11.61;72.31;102727.84;4979581;28;45327;-77
2022/11/11 02:17:24;;;;;;;;;8.00;8.00;;;;;11.56;72.48;102726.97;4971851;28;45405;-77
2022/11/11 02:20:08;;;;;;;;;6.50;6.00;;;;;11.56;72.11;102733.06;4978043;28;45348;-77
2022/11/11 02:22:37;;;;;;;;;9.25;7.00;;;;;11.42;72.34;102722.66;4961701;28;45736;-77
2022/11/11 02:25:06;;;;;;;;;9.00;8.00;;;;;11.45;72.18;102723.53;4978913;28;45432;-77
2022/11/11 02:27:34;;;;;;;;;7.25;7.00;;;;;11.42;72.29;102729.59;4961865;28;45390;-77
2022/11/11 02:30:00;;;;;;;;;8.25;7.25;;;;;11.41;72.70;102726.13;4977955;28;46369;-77
2022/11/11 02:32:25;;;;;;;;;11.25;8.50;;;;;11.43;72.37;102726.97;4977908;28;45436;-77
2022/11/11 02:34:51;;;;;;;;;8.50;7.25;;;;;11.43;72.34;102718.31;4979142;28;46173;-77
2022/11/11 02:37:20;;;;;;;;;9.50;6.50;;;;;11.50;72.51;102722.66;4977978;28;70339;-78
2022/11/11 02:39:47;;;;;;;;;11.50;7.00;;;;;11.45;72.29;102720.91;4977349;28;46783;-77
2022/11/11 02:42:13;;;;;;;;;12.00;7.00;;;;;11.45;72.21;102715.69;4977880;28;45345;-77
2022/11/11 02:44:39;;;;;;;;;14.75;10.00;;;;;11.42;72.41;102720.06;4978047;28;45318;-77
2022/11/11 02:47:04;;;;;;;;;8.75;6.00;;;;;11.41;72.69;102722.66;4979152;28;45421;-77
2022/11/11 02:49:30;;;;;;;;;6.00;6.00;;;;;11.39;72.08;102716.56;4979002;28;45394;-77
2022/11/11 02:51:55;;;;;;;;;7.50;6.25;;;;;11.38;72.22;102725.25;4978857;28;45350;-77
2022/11/11 02:54:20;;;;;;;;;6.50;6.00;;;;;11.36;72.15;102722.63;4977801;28;65521;-77
2022/11/11 02:59:29;;;;;;;;;11.50;6.50;;;;;11.30;72.19;102717.44;4977682;28;45446;-77
2022/11/11 03:01:55;;;;;;;;;9.75;9.00;;;;;11.35;72.52;102720.06;4977855;28;72959;-77
2022/11/11 03:04:20;;;;;;;;;9.50;5.75;;;;;11.35;72.38;102727.88;4978153;28;65124;-77
2022/11/11 03:06:45;;;;;;;;;7.50;6.50;;;;;11.34;72.00;102723.53;4978279;28;55644;-77
2022/11/11 03:09:11;;;;;;;;;11.00;7.00;;;;;11.31;72.04;102724.41;4978320;28;46315;-77
2022/11/11 03:11:37;;;;;;;;;10.75;6.50;;;;;11.33;72.18;102724.38;4977431;28;73190;-77
2022/11/11 03:14:03;;;;;;;;;10.75;6.75;;;;;11.32;72.21;102725.25;4978333;28;45442;-77
2022/11/11 03:19:12;;;;;;;;;11.25;6.75;;;;;11.15;72.04;102727.88;4963653;28;45346;-77
2022/11/11 03:21:38;;;;;;;;;10.25;6.25;;;;;11.10;72.56;102727.00;4977325;28;72133;-77
2022/11/11 03:24:03;;;;;;;;;7.50;6.75;;;;;11.04;72.01;102715.69;4977314;28;66643;-77
2022/11/11 03:26:29;;;;;;;;;11.25;7.00;;;;;11.06;72.39;102714.84;4978404;28;45725;-77
2022/11/11 03:28:54;;;;;;;;;14.00;6.75;;;;;11.05;72.24;102716.56;4977330;28;75637;-77
2022/11/11 03:31:20;;;;;;;;;9.75;7.00;;;;;10.98;72.81;102715.69;4977390;28;65399;-77
2022/11/11 03:33:45;;;;;;;;;10.50;5.25;;;;;10.89;72.69;102702.66;4960900;28;45381;-77
2022/11/11 03:36:10;;;;;;;;;9.00;6.50;;;;;10.95;73.20;102717.44;4976124;28;65946;-77
2022/11/11 03:38:36;;;;;;;;;7.25;6.25;;;;;10.93;73.21;102714.81;4956829;28;46653;-77
2022/11/11 03:41:01;;;;;;;;;13.25;7.25;;;;;10.96;72.52;102721.78;4957401;28;73341;-77
2022/11/11 03:43:29;;;;;;;;;10.50;8.00;;;;;10.89;72.51;102713.06;4956605;28;68126;-77
2022/11/11 03:45:57;;;;;;;;;6.75;5.00;;;;;10.89;72.88;102726.09;4958807;28;45305;-77
2022/11/11 03:48:25;;;;;;;;;9.50;7.75;;;;;10.86;72.99;102723.47;4957390;28;45405;-77
2022/11/11 03:50:50;;;;;;;;;5.50;5.00;;;;;10.85;73.16;102716.56;4957091;28;45298;-77
2022/11/11 03:53:18;;;;;;;;;10.00;8.00;;;;;10.88;73.14;102726.09;4958388;28;45267;-77
2022/11/11 03:55:44;;;;;;;;;12.00;7.00;;;;;10.88;73.26;102724.34;4958459;28;45550;-77
2022/11/11 03:58:09;;;;;;;;;8.00;7.50;;;;;10.84;73.31;102725.22;4958376;28;48345;-77
2022/11/11 04:00:35;;;;;;;;;10.75;6.50;;;;;10.82;72.95;102729.56;4957243;28;45389;-77
2022/11/11 04:11:13;;;;;;;;;9.00;6.25;;;;;10.75;73.11;102739.09;4957982;28;45440;-77
2022/11/11 04:16:25;;;;;;;;;9.50;3.00;;;;;10.72;73.48;102746.91;4958286;28;45315;-77
2022/11/11 04:21:43;;;;;;;;;7.50;6.50;;;;;10.67;73.12;102746.03;4970532;28;45333;-77
2022/11/11 04:27:09;;;;;;;;;8.25;6.25;;;;;10.72;73.41;102748.66;4956741;28;45419;-77
2022/11/11 04:29:34;;;;;;;;;6.25;5.50;;;;;10.76;73.80;102753.00;4957874;28;45683;-77
2022/11/11 04:34:51;;;;;;;;;8.25;7.75;;;;;10.79;73.53;102743.47;4957627;28;45338;-77
2022/11/11 04:37:17;;;;;;;;;7.00;7.00;;;;;10.80;73.15;102739.13;4964842;28;45384;-77
2022/11/11 04:42:26;;;;;;;;;7.50;6.75;;;;;10.88;73.24;102733.91;4976263;28;45454;-77
2022/11/11 04:47:36;;;;;;;;;10.00;6.00;;;;;10.97;73.05;102736.53;4976325;28;45426;-77
2022/11/11 04:50:02;;;;;;;;;11.75;7.00;;;;;11.02;73.05;102735.66;4975468;28;46084;-77
2022/11/11 04:52:28;;;;;;;;;9.00;7.75;;;;;11.08;72.97;102739.16;4977082;28;45312;-77
2022/11/11 04:57:45;;;;;;;;;6.75;6.75;;;;;11.13;72.90;102742.66;4976167;28;45331;-77
2022/11/11 05:00:16;;;;;;;;;9.50;7.25;;;;;11.12;72.59;102740.88;4976860;28;45367;-77
2022/11/11 05:05:27;;;;;;;;;8.00;7.00;;;;;11.10;72.34;102745.25;4976759;28;45311;-77
2022/11/11 05:10:36;;;;;;;;;9.50;6.75;;;;;11.14;72.03;102737.41;4976814;28;45745;-77
2022/11/11 05:21:23;;;;;;;;;9.75;6.25;;;;;10.96;72.51;102729.59;4976755;28;45476;-77
2022/11/11 05:26:33;;;;;;;;;9.25;7.00;;;;;10.94;72.13;102721.78;4976667;28;45431;-77
2022/11/11 05:28:58;;;;;;;;;11.75;7.00;;;;;10.90;72.31;102720.03;4976649;28;45246;-77
2022/11/11 05:31:24;;;;;;;;;8.00;6.00;;;;;10.85;72.38;102724.38;4976392;28;45455;-77
2022/11/11 05:33:49;;;;;;;;;16.00;10.25;;;;;10.85;72.46;102724.38;4975971;28;45330;-77
2022/11/11 05:36:15;;;;;;;;;8.00;7.00;;;;;10.83;72.63;102724.34;4975847;28;62973;-76
2022/11/11 05:38:40;;;;;;;;;7.50;6.75;;;;;10.88;72.57;102736.50;4976346;28;45522;-77
2022/11/11 05:41:06;;;;;;;;;10.25;7.50;;;;;10.87;72.63;102750.44;4976197;28;47443;-77
2022/11/11 05:43:31;;;;;;;;;6.75;6.75;;;;;10.79;72.40;102725.22;4976407;28;45288;-76
2022/11/11 05:45:57;;;;;;;;;6.25;6.00;;;;;10.87;72.62;102726.97;4975558;28;66655;-77
2022/11/11 05:48:22;;;;;;;;;7.25;6.00;;;;;10.89;72.50;102731.31;4976140;28;45360;-77
2022/11/11 05:50:47;;;;;;;;;6.75;5.25;;;;;10.90;72.54;102721.75;4975033;28;75599;-77
2022/11/11 05:53:13;;;;;;;;;11.75;6.50;;;;;10.89;72.33;102726.09;4974116;28;71292;-77
2022/11/11 05:55:38;;;;;;;;;10.00;5.00;;;;;10.83;72.63;102721.75;4975398;28;68508;-77
2022/11/11 05:58:03;;;;;;;;;9.75;6.75;;;;;10.81;72.86;102717.41;4976538;28;45482;-77
2022/11/11 06:00:29;;;;;;;;;6.00;6.00;;;;;10.78;72.57;102723.47;4975148;28;73291;-77
2022/11/11 06:03:01;;;;;;;;;11.00;7.00;;;;;10.79;72.98;102732.16;4975727;28;45367;-77
2022/11/11 06:05:26;;;;;;;;;12.00;8.00;;;;;10.78;73.10;102736.50;4976176;28;45443;-77
2022/11/11 06:07:53;;;;;;;;;8.25;6.50;;;;;10.77;73.03;102731.28;4975425;28;64059;-77
2022/11/11 06:10:31;;;;;;;;;11.25;7.50;;;;;10.80;73.12;102729.56;4975840;28;47057;-77
2022/11/11 06:13:09;;;;;;;;;7.25;6.25;;;;;10.89;72.89;102733.91;4975195;28;45844;-77
2022/11/11 06:15:38;;;;;;;;;8.50;6.25;;;;;10.95;72.83;102733.91;4974987;28;45418;-77
2022/11/11 06:18:04;;;;;;;;;10.75;8.75;;;;;10.99;72.60;102735.66;4975571;28;45403;-77
2022/11/11 06:20:30;;;;;;;;;11.75;9.75;;;;;10.98;72.49;102735.69;4975716;28;46625;-77
2022/11/11 06:22:56;;;;;;;;;8.25;7.00;;;;;10.99;72.40;102740.00;4975784;28;45337;-77
2022/11/11 06:28:14;;;;;;;;;13.25;6.50;;;;;11.03;72.54;102754.78;4976012;28;45348;-77
2022/11/11 06:30:39;;;;;;;;;10.00;5.25;;;;;11.01;72.49;102740.88;4975425;28;45404;-77
2022/11/11 06:33:08;;;;;;;;;5.75;5.75;;;;;11.08;72.32;102746.97;4958308;28;45281;-77
2022/11/11 06:35:37;;;;;;;;;5.75;5.50;;;;;11.09;72.31;102749.59;4958879;28;45365;-77
2022/11/11 06:38:03;;;;;;;;;6.75;5.75;;;;;11.05;72.15;102755.66;4975570;28;45352;-77
2022/11/11 06:40:29;;;;;;;;;8.00;8.00;;;;;10.95;71.68;102752.16;4974245;28;45426;-77
2022/11/11 06:42:56;;;;;;;;;7.75;7.25;;;;;10.87;71.90;102774.75;4975572;28;45344;-77
2022/11/11 06:45:22;;;;;;;;;5.75;5.50;;;;;10.77;71.79;102759.94;4975454;28;45354;-78
2022/11/11 06:47:47;;;;;;;;;7.75;5.25;;;;;10.79;72.35;102771.22;4975693;28;45516;-77
2022/11/11 06:50:13;;;;;;;;;11.25;7.00;;;;;10.74;71.79;102766.03;4977756;28;74806;-77
2022/11/11 06:52:38;;;;;;;;;8.75;6.75;;;;;10.74;72.28;102780.78;4978927;28;45304;-77
2022/11/11 06:55:04;;;;;;;;;6.50;5.25;;;;;10.71;72.30;102781.63;4978075;28;68655;-77
2022/11/11 06:57:29;;;;;;;;;7.25;5.00;;;;;10.73;72.26;102777.28;4978829;28;45388;-77
2022/11/11 06:59:55;;;;;;;;;12.00;5.75;;;;;10.74;72.32;102776.44;4977493;28;76515;-77
2022/11/11 07:02:20;;;;;;;;;7.50;5.00;;;;;10.79;72.10;102789.47;4977710;28;71117;-78
2022/11/11 07:04:45;;;;;;;;;8.75;5.50;;;;;10.76;72.10;102782.53;4977858;28;68693;-77
2022/11/11 07:07:10;;;;;;;;;6.25;5.50;;;;;10.80;72.38;102780.78;4978111;28;63722;-77
2022/11/11 07:09:36;;;;;;;;;7.75;5.00;;;;;10.87;72.53;102782.56;4977837;28;72095;-77
2022/11/11 07:12:01;;;;;;;;;3.00;2.75;;;;;10.94;72.21;102791.22;4977770;28;65088;-77
2022/11/11 07:14:26;;;;;;;;;1.75;1.00;;;;;10.95;72.26;102791.25;4977690;28;61405;-77
2022/11/11 07:16:52;;;;;;;;;6.50;6.50;;;;;10.96;71.77;102789.53;4977432;28;70167;-77
2022/11/11 07:19:17;;;;;;;;;3.00;3.00;;;;;10.93;72.04;102779.09;4978560;28;46382;-77
2022/11/11 07:21:43;;;;;;;;;6.25;5.25;;;;;10.90;71.95;102774.75;4977805;28;61492;-77
2022/11/11 07:24:08;;;;;;;;;10.00;4.00;;;;;10.85;72.41;102769.50;4978519;28;45379;-77
2022/11/11 07:26:33;;;;;;;;;5.00;3.00;;;;;10.84;72.10;102772.97;4960172;28;63927;-77
2022/11/11 07:28:59;;;;;;;;;7.25;4.00;;;;;10.89;72.72;102779.97;4977287;28;63513;-77
2022/11/11 07:31:24;;;;;;;;;7.00;5.00;;;;;10.93;72.32;102779.09;4977407;28;68287;-77
2022/11/11 07:33:49;;;;;;;;;5.75;4.50;;;;;10.95;72.34;102772.16;4978407;28;45518;-77
2022/11/11 07:36:14;;;;;;;;;3.00;3.00;;;;;11.00;72.94;102767.81;4977391;28;69095;-77
2022/11/11 07:38:40;;;;;;;;;6.75;2.00;;;;;11.05;72.44;102771.31;4977184;28;70659;-77
2022/11/11 07:41:05;;;;;;;;;8.75;5.00;;;;;11.09;72.25;102778.25;4977408;28;60313;-77
2022/11/11 07:43:30;;;;;;;;;6.25;4.75;;;;;11.07;72.50;102772.19;4975967;28;61932;-78
2022/11/11 07:45:56;;;;;;;;;5.00;5.00;;;;;11.05;72.16;102760.88;4978369;28;45374;-77
2022/11/11 07:48:21;;;;;;;;;6.00;6.00;;;;;11.16;72.10;102766.09;4977509;28;64163;-77
2022/11/11 07:50:46;;;;;;;;;4.50;4.50;;;;;11.18;72.12;102772.16;4977267;28;62079;-77
2022/11/11 07:53:13;;;;;;;;;2.50;2.50;;;;;11.13;72.16;102766.09;4977279;28;65791;-77
2022/11/11 07:55:38;;;;;;;;;6.25;5.50;;;;;11.15;72.27;102766.97;4976815;28;45273;-77
2022/11/11 07:58:03;;;;;;;;;8.25;6.25;;;;;11.17;72.57;102766.09;4977115;28;66313;-77
2022/11/11 08:00:28;;;;;;;;;9.25;4.50;;;;;11.26;72.56;102772.19;4975991;28;66404;-77
2022/11/11 08:02:54;;;;;;;;;7.75;5.00;;;;;11.30;71.91;102774.78;4977619;28;47013;-77
2022/11/11 08:05:19;;;;;;;;;5.00;5.00;;;;;11.37;72.10;102767.84;4977102;28;68585;-77
2022/11/11 08:07:45;;;;;;;;;10.50;6.00;;;;;11.48;71.86;102767.84;4977732;28;45419;-77
2022/11/11 08:10:11;;;;;;;;;11.00;6.00;;;;;11.57;71.77;102775.66;4977581;28;45339;-78
2022/11/11 08:15:20;;;;;;;;;7.50;6.00;;;;;11.60;71.54;102773.91;4977877;28;45252;-77
2022/11/11 08:17:46;;;;;;;;;7.75;5.50;;;;;11.61;71.40;102773.06;4976373;28;74428;-77
2022/11/11 08:20:12;;;;;;;;;8.25;5.00;;;;;11.59;71.25;102768.72;4976908;28;59889;-77
2022/11/11 08:22:38;;;;;;;;;16.50;7.75;;;;;11.59;71.48;102773.94;4977616;28;45403;-77
2022/11/11 08:25:05;;;;;;;;;7.75;6.00;;;;;11.62;71.09;102776.53;4977521;28;45382;-77
2022/11/11 08:27:31;;;;;;;;;10.75;7.75;;;;;11.71;71.78;102784.34;4976905;28;46839;-77
2022/11/11 08:29:56;;;;;;;;;11.50;6.75;;;;;11.75;71.17;102772.16;4976331;28;71013;-77
2022/11/11 08:32:21;;;;;;;;;7.25;6.50;;;;;11.80;71.33;102779.13;4976499;28;67284;-77
2022/11/11 08:34:46;;;;;;;;;7.75;7.00;;;;;11.81;71.56;102777.38;4976600;28;65700;-77
2022/11/11 08:37:12;;;;;;;;;11.00;7.50;;;;;11.80;71.17;102773.03;4976340;28;64923;-77
2022/11/11 08:39:37;;;;;;;;;16.00;7.75;;;;;11.84;71.18;102766.06;4976282;28;64123;-77
2022/11/11 08:42:02;;;;;;;;;10.75;7.00;;;;;11.83;70.88;102767.81;4976109;28;69211;-77
2022/11/11 08:44:28;;;;;;;;;8.00;6.50;;;;;11.90;70.95;102768.69;4976736;28;55336;-77
2022/11/11 08:46:54;;;;;;;;;5.50;5.50;;;;;11.98;70.96;102778.25;4977061;28;45955;-77
2022/11/11 08:49:19;;;;;;;;;6.00;6.00;;;;;12.07;71.17;102776.47;4976772;28;60915;-77
2022/11/11 08:51:44;;;;;;;;;10.00;6.00;;;;;12.15;71.01;102782.56;4974836;28;68947;-77
2022/11/11 08:54:10;;;;;;;;;12.00;7.25;;;;;12.17;70.37;102780.81;4976401;28;63369;-77
2022/11/11 08:56:35;;;;;;;;;9.75;7.25;;;;;12.12;70.25;102775.59;4976770;28;46189;-77
2022/11/11 08:59:00;;;;;;;;;8.00;8.00;;;;;12.18;70.55;102785.16;4975921;28;72763;-77
2022/11/11 09:01:26;;;;;;;;;13.00;8.00;;;;;12.19;70.07;102789.50;4977215;28;45717;-77
2022/11/11 09:03:51;;;;;;;;;12.50;8.75;;;;;12.13;70.16;102795.63;4976512;28;54674;-77
2022/11/11 09:06:16;;;;;;;;;12.00;9.25;;;;;12.17;69.82;102806.94;4976010;28;71671;-77
2022/11/11 09:08:43;;;;;;;;;12.25;8.50;;;;;12.16;70.03;102813.88;4975290;28;54960;-77
2022/11/11 09:11:08;;;;;;;;;11.75;9.25;;;;;12.20;70.36;102813.00;4976080;28;45494;-77
2022/11/11 09:13:33;;;;;;;;;13.50;8.75;;;;;12.21;69.94;102811.25;4976252;28;59752;-77
2022/11/11 09:15:59;;;;;;;;;20.75;19.00;;;;;12.14;69.41;102812.16;4976056;28;64490;-77
2022/11/11 09:18:25;;;;;;;;;20.25;16.00;;;;;12.04;70.12;102818.28;4975757;28;61282;-77
2022/11/11 09:20:50;;;;;;;;;10.50;8.50;;;;;12.06;70.12;102813.91;4976732;28;45273;-77
2022/11/11 09:23:16;;;;;;;;;12.50;8.00;;;;;12.09;70.35;102809.56;4976948;28;45471;-77
2022/11/11 09:25:41;;;;;;;;;11.00;8.75;;;;;12.14;69.84;102812.16;4975247;28;74197;-77
2022/11/11 09:28:06;;;;;;;;;8.25;7.25;;;;;12.17;69.88;102810.41;4975404;28;73452;-77
2022/11/11 09:30:32;;;;;;;;;11.00;7.00;;;;;12.19;69.71;102807.78;4976115;28;55574;-77
2022/11/11 09:33:04;;;;;;;;;12.50;8.00;;;;;12.15;69.82;102809.53;4959158;28;45362;-77
2022/11/11 09:35:29;;;;;;;;;13.75;11.00;;;;;12.18;69.98;102816.47;4975178;28;45399;-77
2022/11/11 09:37:56;;;;;;;;;14.25;12.25;;;;;12.18;69.90;102820.00;4976111;28;45356;-77
2022/11/11 09:40:23;;;;;;;;;18.00;8.00;;;;;12.16;69.72;102813.88;4975925;28;45446;-77
2022/11/11 09:43:01;;;;;;;;;16.25;12.50;;;;;12.22;69.65;102805.19;4991426;28;45444;-77
2022/11/11 09:45:41;;;;;;;;;13.25;7.25;;;;;12.29;69.69;102813.84;4976291;28;46123;-77
2022/11/11 09:48:25;;;;;;;;;10.75;9.00;;;;;12.35;69.43;102819.94;4976412;28;45224;-77
2022/11/11 09:50:54;;;;;;;;;11.50;7.75;;;;;12.46;69.64;102821.63;4976166;28;45328;-77
2022/11/11 09:53:33;;;;;;;;;13.00;9.00;;;;;12.56;69.48;102812.91;4975359;28;45386;-78
2022/11/11 09:56:01;;;;;;;;;7.25;6.00;;;;;12.62;69.05;102809.38;4975052;28;45417;-77
2022/11/11 09:58:39;;;;;;;;;8.50;7.00;;;;;12.69;68.66;102811.09;4976224;28;45756;-77
2022/11/11 10:01:05;;;;;;;;;12.00;8.00;;;;;12.71;68.80;102818.03;4974978;28;45446;-77
2022/11/11 10:03:33;;;;;;;;;7.00;7.00;;;;;12.63;68.21;102814.63;4976197;28;45355;-77
2022/11/11 10:06:02;;;;;;;;;12.00;7.00;;;;;12.65;68.93;102828.53;4976034;28;46440;-77
2022/11/11 10:08:43;;;;;;;;;9.25;6.00;;;;;12.65;68.27;102819.81;4975716;28;45773;-77
2022/11/11 10:11:35;;;;;;;;;10.00;5.00;;;;;12.55;67.95;102825.06;4974798;28;45364;-77
2022/11/11 10:14:00;;;;;;;;;10.00;7.75;;;;;12.47;67.86;102826.84;4973421;28;45313;-78
2022/11/11 10:16:42;;;;;;;;;8.25;6.00;;;;;12.36;68.04;102826.88;4975550;28;45546;-77
2022/11/11 10:19:37;;;;;;;;;6.50;4.25;;;;;12.34;68.45;102830.38;4974772;28;45458;-77
2022/11/11 10:22:15;;;;;;;;;5.25;2.00;;;;;12.27;68.60;102821.69;4973827;28;45350;-77
2022/11/11 10:24:41;;;;;;;;;9.00;7.00;;;;;12.28;69.02;102828.66;4960916;28;45523;-77
2022/11/11 10:27:16;;;;;;;;;10.50;6.00;;;;;12.25;68.61;102830.41;4979255;28;45309;-77
2022/11/11 10:29:43;;;;;;;;;8.50;7.00;;;;;12.23;68.63;102826.94;4977943;28;45832;-77
2022/11/11 10:32:21;;;;;;;;;8.50;7.50;;;;;12.29;68.54;102834.75;4979252;28;45361;-77
2022/11/11 10:34:46;;;;;;;;;8.00;8.00;;;;;12.26;68.81;102832.13;4979371;28;45436;-78
2022/11/11 10:37:17;;;;;;;;;9.00;8.25;;;;;12.20;68.59;102817.34;4978015;28;59599;-78
2022/11/11 10:40:12;;;;;;;;;9.00;7.25;;;;;12.20;68.56;102822.56;4978935;28;45413;-77
2022/11/11 10:42:37;;;;;;;;;13.75;11.50;;;;;12.22;68.48;102825.19;4978052;28;45433;-77
2022/11/11 10:45:12;;;;;;;;;11.00;9.25;;;;;12.19;68.57;102819.09;4977008;28;69191;-77
2022/11/11 10:48:04;;;;;;;;;13.00;10.00;;;;;12.24;69.53;102826.03;4977723;28;47255;-77
2022/11/11 10:50:56;;;;;;;;;13.50;8.50;;;;;12.34;69.24;102831.25;4977589;28;45334;-77
2022/11/11 10:53:33;;;;;;;;;10.75;7.00;;;;;12.38;68.62;102838.19;4977645;28;45562;-77
2022/11/11 10:56:01;;;;;;;;;13.50;9.25;;;;;12.37;68.14;102833.84;4977891;28;45508;-77
2022/11/11 10:58:31;;;;;;;;;11.75;8.25;;;;;12.35;68.50;102833.00;4978868;28;46800;-77
2022/11/11 11:00:59;;;;;;;;;10.75;9.75;;;;;12.42;68.51;102836.44;4977577;28;45428;-77
2022/11/11 11:03:30;;;;;;;;;9.00;8.50;;;;;12.56;68.87;102831.19;4977694;28;45413;-77
2022/11/11 11:06:02;;;;;;;;;14.75;9.00;;;;;12.67;68.77;102831.16;4977466;28;45505;-77
2022/11/11 11:08:35;;;;;;;;;9.75;7.25;;;;;12.76;67.82;102824.13;4977384;28;47216;-77
2022/11/11 11:11:09;;;;;;;;;14.75;9.25;;;;;12.90;67.80;102833.63;4977404;28;45766;-77
2022/11/11 11:13:44;;;;;;;;;11.50;8.25;;;;;13.01;68.06;102826.59;4977398;28;45321;-77
2022/11/11 11:16:16;;;;;;;;;16.00;9.50;;;;;13.12;67.08;102827.41;4977336;28;45413;-77
2022/11/11 11:18:43;;;;;;;;;9.00;7.50;;;;;13.20;67.50;102819.50;4977172;28;47192;-78
2022/11/11 11:21:08;;;;;;;;;14.75;8.00;;;;;13.24;67.03;102812.50;4993096;28;45423;-77
2022/11/11 11:23:41;;;;;;;;;12.00;9.00;;;;;13.24;65.94;102820.34;4993700;28;45332;-77
2022/11/11 11:26:09;;;;;;;;;8.00;8.00;;;;;13.17;66.89;102816.94;4961056;28;45821;-77
2022/11/11 11:28:34;;;;;;;;;15.00;11.25;;;;;13.25;66.66;102820.34;4978253;28;45514;-77
2022/11/11 11:31:05;;;;;;;;;10.25;8.75;;;;;13.40;66.80;102808.06;4977827;28;56930;-77
2022/11/11 11:33:53;;;;;;;;;14.50;9.25;;;;;13.58;66.06;102802.69;4978396;28;45326;-77
2022/11/11 11:36:19;;;;;;;;;9.50;9.50;;;;;13.82;65.54;102793.75;4976749;28;45265;-77
2022/11/11 11:38:49;;;;;;;;;10.25;8.00;;;;;14.05;65.41;102796.13;4977097;28;71610;-77
2022/11/11 11:41:16;;;;;;;;;10.50;8.75;;;;;14.52;64.83;102789.47;4976667;28;45746;-77
2022/11/11 11:43:42;;;;;;;;;14.00;9.75;;;;;14.93;63.94;102794.19;4978172;28;45476;-77
2022/11/11 11:46:27;;;;;;;;;10.00;9.25;;;;;15.12;63.24;102793.06;4978325;28;45436;-77
2022/11/11 11:49:05;;;;;;;;;11.75;9.50;;;;;15.33;62.93;102783.09;4978016;28;46721;-77
2022/11/11 11:51:48;;;;;;;;;9.75;9.00;;;;;15.58;62.57;102786.16;4960072;28;45769;-77
2022/11/11 11:54:22;;;;;;;;;11.75;9.00;;;;;15.81;61.65;102785.81;4978042;28;45384;-78
2022/11/11 11:56:50;;;;;;;;;9.00;9.00;;;;;16.26;60.99;102783.19;4978079;28;45636;-77
2022/11/11 11:59:49;;;;;;;;;12.25;10.75;;;;;16.78;59.60;102776.81;4960503;28;46151;-78
2022/11/11 12:02:39;;;;;;;;;11.00;9.00;;;;;16.92;58.63;102779.16;4977548;28;45308;-77
2022/11/11 12:05:04;;;;;;;;;14.50;10.00;;;;;17.06;58.81;102781.47;4960104;28;45445;-77
2022/11/11 12:08:06;;;;;;;;;14.50;11.50;;;;;17.57;57.43;102767.06;4977934;28;45440;-78
2022/11/11 12:10:50;;;;;;;;;12.25;9.50;;;;;19.39;57.70;102767.84;4977472;28;45688;-77
2022/11/11 12:13:44;;;;;;;;;13.00;10.75;;;;;21.40;55.23;102761.13;4977740;28;45448;-77
2022/11/11 12:16:34;;;;;;;;;11.75;9.00;;;;;23.24;48.92;102766.88;4960200;28;45443;-77
2022/11/11 12:19:21;;;;;;;;;13.75;10.75;;;;;24.41;48.05;102766.88;4975915;28;45422;-77
2022/11/11 12:21:57;;;;;;;;;11.00;10.00;;;;;25.62;42.75;102764.34;4977181;28;47748;-77
2022/11/11 12:24:45;;;;;;;;;9.00;9.00;;;;;26.32;40.26;102760.94;4977451;28;45400;-78
2022/11/11 12:27:23;;;;;;;;;11.00;8.75;;;;;26.59;39.24;102765.44;4977665;28;45331;-78
2022/11/11 12:30:07;;;;;;;;;13.00;11.00;;;;;26.81;40.22;102762.22;4977489;28;45705;-77
2022/11/11 12:33:08;;;;;;;;;11.50;9.50;;;;;27.16;39.49;102756.34;4992549;28;46613;-77
2022/11/11 12:36:00;;;;;;;;;9.00;8.50;;;;;27.41;37.03;102755.53;4955408;28;45388;-77
2022/11/11 12:38:53;;;;;;;;;11.25;11.00;;;;;27.57;36.93;102750.00;4938476;28;45386;-77
2022/11/11 12:41:25;;;;;;;;;9.00;8.50;;;;;27.96;38.27;102753.53;4952083;28;45525;-77
2022/11/11 12:43:57;;;;;;;;;10.00;8.75;;;;;28.19;38.52;102749.19;4973630;28;46374;-78
2022/11/11 12:46:54;;;;;;;;;10.00;10.00;;;;;28.71;37.96;102747.19;4956774;28;45698;-78
2022/11/11 12:49:40;;;;;;;;;13.00;11.25;;;;;29.50;35.23;102736.75;4973407;28;45400;-78